createdAt,value
2016-10-28T00:00:32.358Z,746.49
2016-10-28T00:01:32.345Z,746.46
2016-10-28T00:02:32.332Z,746.47
2016-10-28T00:03:32.330Z,746.43
2016-10-28T00:04:32.317Z,746.47
2016-10-28T00:05:32.293Z,746.48
2016-10-28T00:06:32.292Z,746.47
2016-10-28T00:07:32.268Z,746.52
2016-10-28T00:08:32.265Z,746.51
2016-10-28T00:09:32.242Z,746.51
2016-10-28T00:10:32.241Z,746.52
2016-10-28T00:11:32.215Z,746.49
2016-10-28T00:12:32.214Z,746.52
2016-10-28T00:13:32.201Z,746.54
2016-10-28T00:14:32.177Z,746.54
2016-10-28T00:15:32.175Z,746.52
2016-10-28T00:16:32.152Z,746.5
2016-10-28T00:17:32.139Z,746.55
2016-10-28T00:18:32.124Z,746.53
2016-10-28T00:19:32.114Z,746.56
2016-10-28T00:20:32.111Z,746.56
2016-10-28T00:21:32.087Z,746.56
2016-10-28T00:22:32.084Z,746.6
2016-10-28T00:23:32.071Z,746.58
2016-10-28T00:24:32.058Z,746.66
2016-10-28T00:25:32.034Z,746.66
2016-10-28T00:26:32.032Z,746.71
2016-10-28T00:27:32.008Z,746.7
2016-10-28T00:28:32.007Z,746.67
2016-10-28T00:29:31.982Z,746.68
2016-10-28T00:30:31.970Z,746.71
2016-10-28T00:31:31.968Z,746.72
2016-10-28T00:32:31.955Z,746.72
2016-10-28T00:33:31.930Z,746.76
2016-10-28T00:34:31.929Z,746.79
2016-10-28T00:35:31.917Z,746.75
2016-10-28T00:36:31.893Z,746.78
2016-10-28T00:37:31.891Z,746.76
2016-10-28T00:38:31.868Z,746.79
2016-10-28T00:39:31.856Z,746.78
2016-10-28T00:40:31.855Z,746.83
2016-10-28T00:41:31.831Z,746.8
2016-10-28T00:42:31.819Z,746.79
2016-10-28T00:43:31.818Z,746.82
2016-10-28T00:44:31.805Z,746.87
2016-10-28T00:45:31.781Z,746.92
2016-10-28T00:46:31.780Z,746.89
2016-10-28T00:47:31.767Z,746.78
2016-10-28T00:48:31.743Z,746.78
2016-10-28T00:49:31.742Z,746.74
2016-10-28T00:50:31.730Z,746.79
2016-10-28T00:51:31.717Z,746.75
2016-10-28T00:52:31.692Z,746.75
2016-10-28T00:53:31.691Z,746.72
2016-10-28T00:54:31.679Z,746.71
2016-10-28T00:55:31.665Z,746.75
2016-10-28T00:56:31.642Z,746.72
2016-10-28T00:57:31.629Z,746.82
2016-10-28T00:58:31.614Z,746.75
2016-10-28T00:59:31.612Z,746.74
2016-10-28T01:00:31.588Z,746.73
2016-10-28T01:01:31.587Z,746.7
2016-10-28T01:02:31.561Z,746.69
2016-10-28T01:03:31.549Z,746.7
2016-10-28T01:04:31.546Z,746.68
2016-10-28T01:05:31.534Z,746.7
2016-10-28T01:06:31.509Z,746.68
2016-10-28T01:07:31.496Z,746.74
2016-10-28T01:08:31.483Z,746.67
2016-10-28T01:09:31.481Z,746.67
2016-10-28T01:10:31.458Z,746.66
2016-10-28T01:11:31.457Z,746.68
2016-10-28T01:12:31.444Z,746.65
2016-10-28T01:13:31.420Z,746.67
2016-10-28T01:14:31.408Z,746.66
2016-10-28T01:15:31.407Z,746.68
2016-10-28T01:16:31.395Z,746.63
2016-10-28T01:17:31.371Z,746.66
2016-10-28T01:18:31.370Z,746.68
2016-10-28T01:19:31.347Z,746.68
2016-10-28T01:20:31.335Z,746.65
2016-10-28T01:21:31.333Z,746.67
2016-10-28T01:22:31.311Z,746.67
2016-10-28T01:23:31.298Z,746.66
2016-10-28T01:24:31.296Z,746.7
2016-10-28T01:25:31.274Z,746.66
2016-10-28T01:26:31.272Z,746.64
2016-10-28T01:27:31.251Z,746.62
2016-10-28T01:28:31.237Z,746.62
2016-10-28T01:29:31.227Z,746.63
2016-10-28T01:30:31.225Z,746.6
2016-10-28T01:31:31.212Z,746.59
2016-10-28T01:32:31.189Z,746.56
2016-10-28T01:33:31.177Z,746.6
2016-10-28T01:34:31.177Z,746.6
2016-10-28T01:35:31.153Z,746.61
2016-10-28T01:36:31.152Z,746.63
2016-10-28T01:37:31.140Z,746.58
2016-10-28T01:38:31.116Z,746.57
2016-10-28T01:39:31.105Z,746.59
2016-10-28T01:40:31.104Z,746.59
2016-10-28T01:41:31.083Z,746.57
2016-10-28T01:42:31.068Z,746.58
2016-10-28T01:43:31.068Z,746.6
2016-10-28T01:44:31.057Z,746.6
2016-10-28T01:45:31.045Z,746.57
2016-10-28T01:46:31.022Z,746.56
2016-10-28T01:47:31.011Z,746.58
2016-10-28T01:48:31.010Z,746.56
2016-10-28T01:49:30.996Z,746.58
2016-10-28T01:50:30.976Z,746.54
2016-10-28T01:51:30.975Z,746.54
2016-10-28T01:52:30.964Z,746.57
2016-10-28T01:53:30.941Z,746.55
2016-10-28T01:54:30.940Z,746.56
2016-10-28T01:55:30.917Z,746.58
2016-10-28T01:56:30.917Z,746.55
2016-10-28T01:57:30.904Z,746.56
2016-10-28T01:58:30.881Z,746.56
2016-10-28T01:59:30.870Z,746.58
2016-10-28T02:00:30.858Z,746.61
2016-10-28T02:01:30.857Z,746.57
2016-10-28T02:02:30.835Z,746.55
2016-10-28T02:03:30.822Z,746.55
2016-10-28T02:04:30.810Z,746.57
2016-10-28T02:05:30.799Z,746.51
2016-10-28T02:06:30.786Z,746.54
2016-10-28T02:07:30.786Z,746.54
2016-10-28T02:08:30.761Z,746.57
2016-10-28T02:09:30.750Z,746.54
2016-10-28T02:10:30.738Z,746.59
2016-10-28T02:11:30.735Z,746.58
2016-10-28T02:12:30.712Z,746.54
2016-10-28T02:13:30.711Z,746.58
2016-10-28T02:14:30.699Z,746.6
2016-10-28T02:15:30.675Z,746.63
2016-10-28T02:16:30.673Z,746.67
2016-10-28T02:17:30.661Z,746.63
2016-10-28T02:18:30.638Z,746.61
2016-10-28T02:19:30.636Z,746.67
2016-10-28T02:20:30.613Z,746.66
2016-10-28T02:21:30.601Z,746.68
2016-10-28T02:22:30.587Z,746.65
2016-10-28T02:23:30.587Z,746.62
2016-10-28T02:24:30.575Z,746.67
2016-10-28T02:25:30.552Z,746.64
2016-10-28T02:26:30.551Z,746.66
2016-10-28T02:27:30.538Z,746.65
2016-10-28T02:28:30.526Z,746.65
2016-10-28T02:29:30.503Z,746.64
2016-10-28T02:30:30.500Z,746.67
2016-10-28T02:31:30.478Z,746.64
2016-10-28T02:32:30.477Z,746.64
2016-10-28T02:33:30.453Z,746.63
2016-10-28T02:34:30.442Z,746.62
2016-10-28T02:35:30.430Z,746.58
2016-10-28T02:36:30.418Z,746.64
2016-10-28T02:37:30.416Z,746.69
2016-10-28T02:38:30.404Z,746.67
2016-10-28T02:39:30.381Z,746.66
2016-10-28T02:40:30.380Z,746.7
2016-10-28T02:41:30.356Z,746.67
2016-10-28T02:42:30.355Z,746.71
2016-10-28T02:43:30.344Z,746.72
2016-10-28T02:44:30.331Z,746.65
2016-10-28T02:45:30.308Z,746.66
2016-10-28T02:46:30.307Z,746.68
2016-10-28T02:47:30.285Z,746.66
2016-10-28T02:48:30.273Z,746.7
2016-10-28T02:49:30.271Z,746.71
2016-10-28T02:50:30.248Z,746.75
2016-10-28T02:51:30.248Z,746.72
2016-10-28T02:52:30.235Z,746.76
2016-10-28T02:53:30.224Z,746.74
2016-10-28T02:54:30.211Z,746.74
2016-10-28T02:55:30.198Z,746.77
2016-10-28T02:56:30.187Z,746.75
2016-10-28T02:57:30.163Z,746.78
2016-10-28T02:58:30.152Z,746.75
2016-10-28T02:59:30.149Z,746.71
2016-10-28T03:00:30.129Z,746.78
2016-10-28T03:01:30.114Z,746.8
2016-10-28T03:02:30.113Z,746.79
2016-10-28T03:03:30.091Z,746.81
2016-10-28T03:04:30.090Z,746.79
2016-10-28T03:05:30.067Z,746.89
2016-10-28T03:06:30.065Z,746.88
2016-10-28T03:07:30.042Z,746.86
2016-10-28T03:08:30.031Z,746.86
2016-10-28T03:09:30.029Z,746.87
2016-10-28T03:10:30.016Z,746.81
2016-10-28T03:11:30.004Z,746.83
2016-10-28T03:12:29.982Z,746.82
2016-10-28T03:13:29.968Z,746.82
2016-10-28T03:14:29.956Z,746.79
2016-10-28T03:15:29.953Z,746.81
2016-10-28T03:16:29.941Z,746.87
2016-10-28T03:17:29.928Z,746.8
2016-10-28T03:18:29.905Z,746.84
2016-10-28T03:19:29.891Z,746.92
2016-10-28T03:20:29.878Z,746.86
2016-10-28T03:21:29.874Z,746.92
2016-10-28T03:22:29.851Z,746.95
2016-10-28T03:23:29.848Z,746.98
2016-10-28T03:24:29.825Z,746.95
2016-10-28T03:25:29.822Z,746.95
2016-10-28T03:26:29.810Z,747
2016-10-28T03:27:29.798Z,747
2016-10-28T03:28:29.772Z,746.98
2016-10-28T03:29:29.759Z,747.02
2016-10-28T03:30:29.758Z,747.05
2016-10-28T03:31:29.734Z,747.03
2016-10-28T03:32:29.722Z,747.04
2016-10-28T03:33:29.720Z,746.99
2016-10-28T03:34:29.697Z,747.03
2016-10-28T03:35:29.682Z,747
2016-10-28T03:36:29.681Z,747.04
2016-10-28T03:37:29.656Z,747.02
2016-10-28T03:38:29.655Z,747
2016-10-28T03:39:29.630Z,747
2016-10-28T03:40:29.629Z,747
2016-10-28T03:41:29.605Z,746.98
2016-10-28T03:42:29.604Z,746.99
2016-10-28T03:43:29.580Z,747.03
2016-10-28T03:44:29.567Z,746.98
2016-10-28T03:45:29.565Z,747
2016-10-28T03:46:29.540Z,747
2016-10-28T03:47:29.529Z,747
2016-10-28T03:48:29.527Z,746.99
2016-10-28T03:49:29.504Z,747.04
2016-10-28T03:50:29.490Z,747.04
2016-10-28T03:51:29.476Z,747.04
2016-10-28T03:52:29.463Z,747.04
2016-10-28T03:53:29.463Z,747.08
2016-10-28T03:54:29.440Z,747.08
2016-10-28T03:55:29.425Z,747.08
2016-10-28T03:56:29.413Z,747.06
2016-10-28T03:57:29.411Z,747.1
2016-10-28T03:58:29.387Z,747.08
2016-10-28T03:59:29.374Z,747.05
2016-10-28T04:00:29.373Z,747.05
2016-10-28T04:01:29.348Z,747.02
2016-10-28T04:02:29.336Z,747.05
2016-10-28T04:03:29.335Z,747.04
2016-10-28T04:04:29.313Z,747.06
2016-10-28T04:05:29.308Z,747.02
2016-10-28T04:06:29.284Z,747.03
2016-10-28T04:07:29.283Z,747.03
2016-10-28T04:08:29.261Z,747.02
2016-10-28T04:09:29.246Z,747.04
2016-10-28T04:10:29.244Z,747.03
2016-10-28T04:11:29.232Z,747.02
2016-10-28T04:12:29.217Z,747.01
2016-10-28T04:13:29.206Z,747.05
2016-10-28T04:14:29.284Z,747.05
2016-10-28T04:15:29.181Z,747.01
2016-10-28T04:16:29.168Z,746.96
2016-10-28T04:17:29.156Z,746.99
2016-10-28T04:18:29.134Z,746.95
2016-10-28T04:19:29.131Z,746.95
2016-10-28T04:20:29.109Z,746.98
2016-10-28T04:21:29.095Z,747
2016-10-28T04:22:29.095Z,746.99
2016-10-28T04:23:29.070Z,746.96
2016-10-28T04:24:29.072Z,746.96
2016-10-28T04:25:29.058Z,746.93
2016-10-28T04:26:29.035Z,746.89
2016-10-28T04:27:29.033Z,746.91
2016-10-28T04:28:29.022Z,746.9
2016-10-28T04:29:29.010Z,746.88
2016-10-28T04:30:28.986Z,746.89
2016-10-28T04:31:28.986Z,746.87
2016-10-28T04:32:28.963Z,746.85
2016-10-28T04:33:28.963Z,746.88
2016-10-28T04:34:28.939Z,746.89
2016-10-28T04:35:28.937Z,746.89
2016-10-28T04:36:28.915Z,746.89
2016-10-28T04:37:28.904Z,746.9
2016-10-28T04:38:28.903Z,746.91
2016-10-28T04:39:28.892Z,746.9
2016-10-28T04:40:28.880Z,746.91
2016-10-28T04:41:28.867Z,746.9
2016-10-28T04:42:28.856Z,746.96
2016-10-28T04:43:28.844Z,746.97
2016-10-28T04:44:28.821Z,747.03
2016-10-28T04:45:28.819Z,746.99
2016-10-28T04:46:28.798Z,747
2016-10-28T04:47:28.796Z,746.99
2016-10-28T04:48:28.783Z,747.03
2016-10-28T04:49:28.760Z,747.05
2016-10-28T04:50:28.760Z,747.09
2016-10-28T04:51:28.748Z,747.08
2016-10-28T04:52:28.736Z,747.1
2016-10-28T04:53:28.723Z,747.11
2016-10-28T04:54:28.712Z,747.12
2016-10-28T04:55:28.689Z,747.11
2016-10-28T04:56:28.688Z,747.14
2016-10-28T04:57:28.664Z,747.16
2016-10-28T04:58:28.664Z,747.15
2016-10-28T04:59:28.640Z,747.18
2016-10-28T05:00:28.640Z,747.16
2016-10-28T05:01:28.628Z,747.13
2016-10-28T05:02:28.605Z,747.15
2016-10-28T05:03:28.593Z,747.15
2016-10-28T05:04:28.581Z,747.14
2016-10-28T05:05:28.571Z,747.16
2016-10-28T05:06:28.558Z,747.17
2016-10-28T05:07:28.546Z,747.18
2016-10-28T05:08:28.535Z,747.11
2016-10-28T05:09:28.535Z,747.13
2016-10-28T05:10:28.561Z,747.09
2016-10-28T05:11:28.511Z,747.08
2016-10-28T05:12:28.488Z,747.07
2016-10-28T05:13:28.476Z,747.05
2016-10-28T05:14:28.476Z,747.1
2016-10-28T05:15:28.454Z,747.08
2016-10-28T05:16:28.452Z,747.06
2016-10-28T05:17:28.431Z,747.11
2016-10-28T05:18:28.418Z,747.09
2016-10-28T05:19:28.405Z,747.14
2016-10-28T05:20:28.405Z,747.15
2016-10-28T05:21:28.381Z,747.14
2016-10-28T05:22:28.381Z,747.13
2016-10-28T05:23:28.369Z,747.15
2016-10-28T05:24:28.358Z,747.11
2016-10-28T05:25:28.335Z,747.1
2016-10-28T05:26:28.334Z,747.15
2016-10-28T05:27:28.311Z,747.15
2016-10-28T05:28:28.310Z,747.15
2016-10-28T05:29:28.286Z,747.16
2016-10-28T05:30:28.275Z,747.18
2016-10-28T05:31:28.263Z,747.15
2016-10-28T05:32:28.251Z,747.09
2016-10-28T05:33:28.241Z,747.1
2016-10-28T05:34:28.239Z,747.11
2016-10-28T05:35:28.228Z,747.08
2016-10-28T05:36:28.205Z,747.16
2016-10-28T05:37:28.203Z,747.17
2016-10-28T05:38:28.191Z,747.17
2016-10-28T05:39:28.179Z,747.21
2016-10-28T05:40:28.155Z,747.21
2016-10-28T05:41:28.144Z,747.3
2016-10-28T05:42:28.132Z,747.3
2016-10-28T05:43:28.120Z,747.31
2016-10-28T05:44:28.119Z,747.31
2016-10-28T05:45:28.107Z,747.3
2016-10-28T05:46:28.086Z,747.29
2016-10-28T05:47:28.072Z,747.28
2016-10-28T05:48:28.072Z,747.31
2016-10-28T05:49:28.049Z,747.32
2016-10-28T05:50:28.048Z,747.32
2016-10-28T05:51:28.036Z,747.3
2016-10-28T05:52:28.013Z,747.32
2016-10-28T05:53:28.001Z,747.36
2016-10-28T05:54:28.001Z,747.38
2016-10-28T05:55:27.989Z,747.4
2016-10-28T05:56:27.967Z,747.42
2016-10-28T05:57:27.955Z,747.43
2016-10-28T05:58:27.953Z,747.42
2016-10-28T05:59:27.930Z,747.44
2016-10-28T06:00:27.920Z,747.41
2016-10-28T06:01:27.907Z,747.4
2016-10-28T06:02:27.897Z,747.42
2016-10-28T06:03:27.883Z,747.43
2016-10-28T06:04:27.874Z,747.42
2016-10-28T06:05:27.860Z,747.47
2016-10-28T06:06:27.849Z,747.47
2016-10-28T06:07:27.848Z,747.47
2016-10-28T06:08:27.837Z,747.49
2016-10-28T06:09:27.815Z,747.47
2016-10-28T06:10:27.804Z,747.49
2016-10-28T06:11:27.792Z,747.49
2016-10-28T06:12:27.781Z,747.45
2016-10-28T06:13:27.779Z,747.44
2016-10-28T06:14:27.770Z,747.44
2016-10-28T06:15:27.749Z,747.47
2016-10-28T06:16:27.749Z,747.43
2016-10-28T06:17:27.738Z,747.44
2016-10-28T06:18:27.727Z,747.39
2016-10-28T06:19:27.717Z,747.4
2016-10-28T06:20:27.705Z,747.43
2016-10-28T06:21:27.684Z,747.42
2016-10-28T06:22:27.684Z,747.44
2016-10-28T06:23:27.673Z,747.46
2016-10-28T06:24:27.662Z,747.45
2016-10-28T06:25:27.652Z,747.5
2016-10-28T06:26:27.631Z,747.48
2016-10-28T06:27:27.618Z,747.49
2016-10-28T06:28:27.607Z,747.51
2016-10-28T06:29:27.596Z,747.5
2016-10-28T06:30:27.597Z,747.49
2016-10-28T06:31:27.586Z,747.53
2016-10-28T06:32:27.575Z,747.55
2016-10-28T06:33:27.554Z,747.49
2016-10-28T06:34:27.553Z,747.52
2016-10-28T06:35:27.543Z,747.58
2016-10-28T06:36:27.533Z,747.58
2016-10-28T06:37:27.523Z,747.6
2016-10-28T06:38:27.501Z,747.61
2016-10-28T06:39:27.502Z,747.61
2016-10-28T06:40:27.482Z,747.63
2016-10-28T06:41:27.471Z,747.64
2016-10-28T06:42:27.472Z,747.65
2016-10-28T06:43:27.462Z,747.69
2016-10-28T06:44:27.453Z,747.67
2016-10-28T06:45:27.431Z,747.67
2016-10-28T06:46:27.433Z,747.68
2016-10-28T06:47:27.424Z,747.67
2016-10-28T06:48:27.403Z,747.68
2016-10-28T06:49:27.394Z,747.68
2016-10-28T06:50:27.396Z,747.68
2016-10-28T06:51:27.375Z,747.68
2016-10-28T06:52:27.378Z,747.65
2016-10-28T06:53:27.368Z,747.67
2016-10-28T06:54:27.348Z,747.73
2016-10-28T06:55:27.341Z,747.69
2016-10-28T06:56:27.331Z,747.75
2016-10-28T06:57:27.322Z,747.74
2016-10-28T06:58:27.315Z,747.75
2016-10-28T06:59:27.317Z,747.76
2016-10-28T07:00:27.308Z,747.72
2016-10-28T07:01:27.299Z,747.75
2016-10-28T07:02:27.330Z,747.76
2016-10-28T07:03:27.283Z,747.79
2016-10-28T07:04:27.264Z,747.73
2016-10-28T07:05:27.267Z,747.77
2016-10-28T07:06:27.249Z,747.79
2016-10-28T07:07:27.251Z,747.77
2016-10-28T07:08:27.243Z,747.75
2016-10-28T07:09:27.236Z,747.78
2016-10-28T07:10:27.219Z,747.8
2016-10-28T07:11:27.220Z,747.8
2016-10-28T07:12:27.213Z,747.81
2016-10-28T07:13:27.206Z,747.86
2016-10-28T07:14:27.187Z,747.79
2016-10-28T07:15:27.178Z,747.79
2016-10-28T07:16:27.171Z,747.81
2016-10-28T07:17:27.164Z,747.8
2016-10-28T07:18:27.165Z,747.82
2016-10-28T07:19:27.159Z,747.81
2016-10-28T07:20:27.141Z,747.82
2016-10-28T07:21:27.144Z,747.81
2016-10-28T07:22:27.135Z,747.85
2016-10-28T07:23:27.128Z,747.84
2016-10-28T07:24:27.121Z,747.87
2016-10-28T07:25:27.113Z,747.87
2016-10-28T07:26:27.095Z,747.84
2016-10-28T07:27:27.098Z,747.87
2016-10-28T07:28:27.091Z,747.91
2016-10-28T07:29:27.072Z,747.92
2016-10-28T07:30:27.075Z,747.91
2016-10-28T07:31:27.069Z,747.9
2016-10-28T07:32:27.051Z,747.92
2016-10-28T07:33:27.043Z,747.9
2016-10-28T07:34:27.047Z,747.88
2016-10-28T07:35:27.030Z,747.93
2016-10-28T07:36:27.023Z,747.94
2016-10-28T07:37:27.026Z,747.95
2016-10-28T07:38:27.008Z,747.94
2016-10-28T07:39:27.002Z,747.93
2016-10-28T07:40:26.995Z,747.92
2016-10-28T07:41:26.999Z,747.98
2016-10-28T07:42:26.981Z,747.93
2016-10-28T07:43:26.986Z,747.97
2016-10-28T07:44:26.979Z,747.96
2016-10-28T07:45:26.972Z,748.01
2016-10-28T07:46:26.955Z,748.03
2016-10-28T07:47:26.948Z,748.05
2016-10-28T07:48:26.953Z,748.06
2016-10-28T07:49:26.936Z,748.05
2016-10-28T07:50:26.940Z,748.07
2016-10-28T07:51:26.933Z,748.1
2016-10-28T07:52:26.927Z,748.07
2016-10-28T07:53:26.910Z,748.04
2016-10-28T07:54:26.903Z,748.07
2016-10-28T07:55:26.907Z,748.06
2016-10-28T07:56:26.890Z,748.1
2016-10-28T07:57:26.884Z,748.07
2016-10-28T07:58:26.889Z,748.1
2016-10-28T07:59:26.872Z,748.07
2016-10-28T08:00:26.877Z,748.05
2016-10-28T08:01:26.870Z,748.07
2016-10-28T08:02:26.863Z,747.99
2016-10-28T08:03:26.857Z,748.09
2016-10-28T08:04:26.842Z,748.07
2016-10-28T08:05:26.834Z,748.06
2016-10-28T08:06:26.837Z,748.05
2016-10-28T08:07:26.820Z,748.07
2016-10-28T08:08:26.813Z,748.05
2016-10-28T08:09:26.817Z,748.11
2016-10-28T08:10:26.811Z,748.09
2016-10-28T08:11:26.805Z,748.08
2016-10-28T08:12:26.799Z,748.1
2016-10-28T08:13:26.782Z,748.12
2016-10-28T08:14:26.786Z,748.12
2016-10-28T08:15:26.771Z,748.08
2016-10-28T08:16:26.764Z,748.11
2016-10-28T08:17:26.769Z,748.11
2016-10-28T08:18:26.762Z,748.13
2016-10-28T08:19:26.758Z,748.12
2016-10-28T08:20:26.751Z,748.13
2016-10-28T08:21:26.735Z,748.14
2016-10-28T08:22:26.740Z,748.15
2016-10-28T08:23:26.723Z,748.15
2016-10-28T08:24:26.729Z,748.15
2016-10-28T08:25:26.742Z,748.07
2016-10-28T08:26:26.718Z,748.15
2016-10-28T08:27:26.712Z,748.19
2016-10-28T08:28:26.706Z,748.13
2016-10-28T08:29:26.700Z,748.22
2016-10-28T08:30:26.694Z,748.16
2016-10-28T08:31:26.688Z,748.18
2016-10-28T08:32:26.670Z,748.2
2016-10-28T08:33:26.665Z,748.16
2016-10-28T08:34:26.670Z,748.17
2016-10-28T08:35:26.664Z,748.23
2016-10-28T08:36:26.647Z,748.23
2016-10-28T08:37:26.642Z,748.26
2016-10-28T08:38:26.635Z,748.31
2016-10-28T08:39:26.629Z,748.31
2016-10-28T08:40:26.625Z,748.23
2016-10-28T08:41:26.619Z,748.22
2016-10-28T08:42:26.624Z,748.18
2016-10-28T08:43:26.618Z,748.18
2016-10-28T08:44:26.602Z,748.11
2016-10-28T08:45:26.608Z,748.21
2016-10-28T08:46:26.601Z,748.17
2016-10-28T08:47:26.596Z,748.17
2016-10-28T08:48:26.590Z,748.19
2016-10-28T08:49:26.585Z,748.17
2016-10-28T08:50:26.568Z,748.17
2016-10-28T08:51:26.572Z,748.24
2016-10-28T08:52:26.556Z,748.31
2016-10-28T08:53:26.548Z,748.28
2016-10-28T08:54:26.543Z,748.24
2016-10-28T08:55:26.549Z,748.25
2016-10-28T08:56:26.535Z,748.15
2016-10-28T08:57:26.536Z,748.13
2016-10-28T08:58:26.530Z,748.24
2016-10-28T08:59:26.514Z,748.27
2016-10-28T09:00:26.508Z,748.25
2016-10-28T09:01:26.500Z,748.27
2016-10-28T09:02:26.496Z,748.31
2016-10-28T09:03:26.489Z,748.31
2016-10-28T09:04:26.483Z,748.23
2016-10-28T09:05:26.488Z,748.31
2016-10-28T09:06:26.471Z,748.29
2016-10-28T09:07:26.476Z,748.29
2016-10-28T09:08:26.458Z,748.31
2016-10-28T09:09:26.453Z,748.3
2016-10-28T09:10:26.457Z,748.36
2016-10-28T09:11:26.441Z,748.4
2016-10-28T09:12:26.444Z,748.36
2016-10-28T09:13:26.438Z,748.38
2016-10-28T09:14:26.421Z,748.34
2016-10-28T09:15:26.414Z,748.4
2016-10-28T09:16:26.418Z,748.37
2016-10-28T09:17:26.401Z,748.39
2016-10-28T09:18:26.396Z,748.45
2016-10-28T09:19:26.399Z,748.36
2016-10-28T09:20:26.393Z,748.38
2016-10-28T09:21:26.386Z,748.37
2016-10-28T09:22:26.380Z,748.39
2016-10-28T09:23:26.374Z,748.43
2016-10-28T09:24:26.368Z,748.42
2016-10-28T09:25:26.362Z,748.46
2016-10-28T09:26:26.354Z,748.46
2016-10-28T09:27:26.348Z,748.44
2016-10-28T09:28:26.331Z,748.44
2016-10-28T09:29:26.335Z,748.43
2016-10-28T09:30:26.317Z,748.46
2016-10-28T09:31:26.322Z,748.44
2016-10-28T09:32:26.316Z,748.49
2016-10-28T09:33:26.309Z,748.47
2016-10-28T09:34:26.303Z,748.51
2016-10-28T09:35:26.297Z,748.51
2016-10-28T09:36:26.279Z,748.59
2016-10-28T09:37:26.273Z,748.56
2016-10-28T09:38:26.278Z,748.54
2016-10-28T09:39:26.272Z,748.49
2016-10-28T09:40:26.267Z,748.47
2016-10-28T09:41:26.260Z,748.49
2016-10-28T09:42:26.244Z,748.53
2016-10-28T09:43:26.238Z,748.55
2016-10-28T09:44:26.242Z,748.55
2016-10-28T09:45:26.236Z,748.54
2016-10-28T09:46:26.231Z,748.49
2016-10-28T09:47:26.213Z,748.51
2016-10-28T09:48:26.207Z,748.53
2016-10-28T09:49:26.201Z,748.53
2016-10-28T09:50:26.408Z,748.51
2016-10-28T09:51:26.200Z,748.49
2016-10-28T09:52:26.183Z,748.52
2016-10-28T09:53:26.187Z,748.5
2016-10-28T09:54:26.172Z,748.5
2016-10-28T09:55:26.165Z,748.54
2016-10-28T09:56:26.158Z,748.55
2016-10-28T09:57:26.153Z,748.55
2016-10-28T09:58:26.146Z,748.54
2016-10-28T09:59:26.139Z,748.52
2016-10-28T10:00:26.145Z,748.57
2016-10-28T10:01:26.138Z,748.6
2016-10-28T10:02:26.122Z,748.61
2016-10-28T10:03:26.127Z,748.6
2016-10-28T10:04:26.110Z,748.61
2016-10-28T10:05:26.115Z,748.63
2016-10-28T10:06:26.097Z,748.64
2016-10-28T10:07:26.102Z,748.65
2016-10-28T10:08:26.086Z,748.59
2016-10-28T10:09:26.079Z,748.6
2016-10-28T10:10:26.084Z,748.58
2016-10-28T10:11:26.066Z,748.59
2016-10-28T10:12:26.061Z,748.62
2016-10-28T10:13:26.067Z,748.58
2016-10-28T10:14:26.049Z,748.58
2016-10-28T10:15:26.053Z,748.63
2016-10-28T10:16:26.049Z,748.6
2016-10-28T10:17:26.041Z,748.62
2016-10-28T10:18:26.025Z,748.62
2016-10-28T10:19:26.030Z,748.62
2016-10-28T10:20:26.024Z,748.66
2016-10-28T10:21:26.018Z,748.62
2016-10-28T10:22:26.001Z,748.61
2016-10-28T10:23:25.995Z,748.62
2016-10-28T10:24:26.001Z,748.65
2016-10-28T10:25:25.995Z,748.7
2016-10-28T10:26:25.978Z,748.66
2016-10-28T10:27:25.984Z,748.64
2016-10-28T10:28:25.978Z,748.62
2016-10-28T10:29:25.962Z,748.58
2016-10-28T10:30:25.967Z,748.65
2016-10-28T10:31:25.963Z,748.62
2016-10-28T10:32:25.957Z,748.61
2016-10-28T10:33:25.940Z,748.6
2016-10-28T10:34:25.935Z,748.59
2016-10-28T10:35:25.940Z,748.57
2016-10-28T10:36:25.934Z,748.53
2016-10-28T10:37:25.928Z,748.52
2016-10-28T10:38:25.922Z,748.58
2016-10-28T10:39:25.916Z,748.57
2016-10-28T10:40:25.898Z,748.53
2016-10-28T10:41:25.904Z,748.54
2016-10-28T10:42:25.887Z,748.6
2016-10-28T10:43:25.881Z,748.57
2016-10-28T10:44:25.875Z,748.53
2016-10-28T10:45:25.869Z,748.53
2016-10-28T10:46:25.862Z,748.55
2016-10-28T10:47:25.855Z,748.55
2016-10-28T10:48:25.850Z,748.56
2016-10-28T10:49:25.843Z,748.58
2016-10-28T10:50:25.847Z,748.59
2016-10-28T10:51:25.841Z,748.59
2016-10-28T10:52:25.835Z,748.56
2016-10-28T10:53:25.817Z,748.58
2016-10-28T10:54:25.810Z,748.6
2016-10-28T10:55:25.805Z,748.6
2016-10-28T10:56:25.809Z,748.57
2016-10-28T10:57:25.803Z,748.54
2016-10-28T10:58:25.786Z,748.6
2016-10-28T10:59:25.780Z,748.65
2016-10-28T11:00:25.774Z,748.6
2016-10-28T11:01:25.778Z,748.62
2016-10-28T11:02:25.761Z,748.61
2016-10-28T11:03:25.757Z,748.63
2016-10-28T11:04:25.750Z,748.66
2016-10-28T11:05:25.743Z,748.7
2016-10-28T11:06:25.739Z,748.63
2016-10-28T11:07:25.744Z,748.64
2016-10-28T11:08:25.826Z,748.61
2016-10-28T11:09:25.733Z,748.6
2016-10-28T11:10:25.727Z,748.6
2016-10-28T11:11:25.711Z,748.57
2016-10-28T11:12:25.715Z,748.57
2016-10-28T11:13:25.698Z,748.52
2016-10-28T11:14:25.704Z,748.54
2016-10-28T11:15:25.687Z,748.56
2016-10-28T11:16:25.693Z,748.59
2016-10-28T11:17:25.676Z,748.55
2016-10-28T11:18:25.670Z,748.55
2016-10-28T11:19:25.675Z,748.54
2016-10-28T11:20:25.657Z,748.52
2016-10-28T11:21:25.652Z,748.46
2016-10-28T11:22:25.657Z,748.53
2016-10-28T11:23:25.649Z,748.47
2016-10-28T11:24:25.632Z,748.41
2016-10-28T11:25:25.627Z,748.34
2016-10-28T11:26:25.621Z,748.37
2016-10-28T11:27:25.612Z,748.41
2016-10-28T11:28:25.617Z,748.35
2016-10-28T11:29:25.600Z,748.36
2016-10-28T11:30:25.602Z,748.37
2016-10-28T11:31:25.595Z,748.25
2016-10-28T11:32:25.576Z,748.29
2016-10-28T11:33:25.580Z,748.27
2016-10-28T11:34:25.561Z,748.33
2016-10-28T11:35:25.553Z,748.26
2016-10-28T11:36:25.556Z,748.29
2016-10-28T11:37:25.549Z,748.3
2016-10-28T11:38:25.529Z,748.3
2016-10-28T11:39:25.532Z,748.24
2016-10-28T11:40:25.513Z,748.33
2016-10-28T11:41:25.505Z,748.21
2016-10-28T11:42:25.497Z,748.23
2016-10-28T11:43:25.499Z,748.24
2016-10-28T11:44:25.481Z,748.22
2016-10-28T11:45:25.471Z,748.17
2016-10-28T11:46:25.462Z,748.24
2016-10-28T11:47:25.465Z,748.17
2016-10-28T11:48:25.457Z,748.11
2016-10-28T11:49:25.436Z,748.17
2016-10-28T11:50:25.429Z,748.29
2016-10-28T11:51:25.430Z,748.21
2016-10-28T11:52:25.420Z,748.18
2016-10-28T11:53:25.411Z,748.1
2016-10-28T11:54:25.402Z,748.13
2016-10-28T11:55:25.393Z,748.18
2016-10-28T11:56:25.383Z,748.15
2016-10-28T11:57:25.373Z,748.09
2016-10-28T11:58:25.363Z,748.2
2016-10-28T11:59:25.343Z,748.22
2016-10-28T12:00:25.343Z,748.15
2016-10-28T12:01:25.324Z,748.1
2016-10-28T12:02:25.326Z,748.08
2016-10-28T12:03:25.306Z,748.16
2016-10-28T12:04:25.296Z,748.14
2016-10-28T12:05:25.298Z,748.25
2016-10-28T12:06:25.288Z,748.24
2016-10-28T12:07:25.266Z,748.17
2016-10-28T12:08:25.273Z,748.21
2016-10-28T12:09:25.259Z,748.1
2016-10-28T12:10:25.242Z,748.19
2016-10-28T12:11:25.240Z,748.1
2016-10-28T12:12:25.232Z,748.2
2016-10-28T12:13:25.212Z,748.15
2016-10-28T12:14:25.214Z,748.15
2016-10-28T12:15:25.205Z,748.09
2016-10-28T12:16:25.197Z,748.15
2016-10-28T12:17:25.188Z,748.11
2016-10-28T12:18:25.179Z,748.24
2016-10-28T12:19:25.170Z,748.19
2016-10-28T12:20:25.161Z,748.19
2016-10-28T12:21:25.152Z,748.23
2016-10-28T12:22:25.142Z,748.22
2016-10-28T12:23:25.133Z,748.19
2016-10-28T12:24:25.112Z,748.13
2016-10-28T12:25:25.113Z,748.15
2016-10-28T12:26:25.093Z,748.2
2016-10-28T12:27:25.084Z,748.25
2016-10-28T12:28:25.084Z,748.21
2016-10-28T12:29:25.075Z,748.29
2016-10-28T12:30:25.054Z,748.14
2016-10-28T12:31:25.056Z,748.18